createdAt,value
2023-01-19T00:00:02.290Z,24.48
2023-01-19T00:00:12.337Z,24.47
2023-01-19T00:00:22.385Z,24.47
2023-01-19T00:00:32.502Z,24.47
2023-01-19T00:00:42.549Z,24.48
2023-01-19T00:00:52.443Z,24.48
2023-01-19T00:01:02.574Z,24.48
2023-01-19T00:01:12.593Z,24.49
2023-01-19T00:01:22.586Z,24.49
2023-01-19T00:01:32.594Z,24.49
2023-01-19T00:01:42.604Z,24.49
2023-01-19T00:01:52.598Z,24.49
2023-01-19T00:02:02.728Z,24.49
2023-01-19T00:02:12.720Z,24.49
2023-01-19T00:02:22.891Z,24.50
2023-01-19T00:02:32.811Z,24.50
2023-01-19T00:02:42.835Z,24.50
2023-01-19T00:02:53.180Z,24.50
2023-01-19T00:03:03.232Z,24.49
2023-01-19T00:03:13.128Z,24.49
2023-01-19T00:03:23.517Z,24.50
2023-01-19T00:03:33.512Z,24.50
2023-01-19T00:03:43.635Z,24.51
2023-01-19T00:03:53.899Z,24.50
2023-01-19T00:04:03.900Z,24.50
2023-01-19T00:04:13.937Z,24.51
2023-01-19T00:04:23.929Z,24.51
2023-01-19T00:04:33.932Z,24.51
2023-01-19T00:04:43.965Z,24.52
2023-01-19T00:04:53.965Z,24.52
2023-01-19T00:05:03.967Z,24.51
2023-01-19T00:05:13.956Z,24.52
2023-01-19T00:05:23.986Z,24.51
2023-01-19T00:05:33.976Z,24.52
2023-01-19T00:05:44.031Z,24.52
2023-01-19T00:05:54.118Z,24.52
2023-01-19T00:06:04.248Z,24.51
2023-01-19T00:06:14.202Z,24.52
2023-01-19T00:06:24.268Z,24.52
2023-01-19T00:06:34.457Z,24.53
2023-01-19T00:06:44.502Z,24.52
2023-01-19T00:06:54.502Z,24.53
2023-01-19T00:07:04.516Z,24.52
2023-01-19T00:07:14.516Z,24.52
2023-01-19T00:07:24.525Z,24.52
2023-01-19T00:07:34.546Z,24.52
2023-01-19T00:07:44.543Z,24.53
2023-01-19T00:07:54.554Z,24.52
2023-01-19T00:08:04.675Z,24.52
2023-01-19T00:08:15.003Z,24.53
2023-01-19T00:08:24.950Z,24.52
2023-01-19T00:08:34.961Z,24.52
2023-01-19T00:08:44.962Z,24.52
2023-01-19T00:08:54.993Z,24.52
2023-01-19T00:09:04.997Z,24.52
2023-01-19T00:09:15.000Z,24.53
2023-01-19T00:09:25.028Z,24.53
2023-01-19T00:09:35.037Z,24.54
2023-01-19T00:09:45.026Z,24.54
2023-01-19T00:09:55.044Z,24.53
2023-01-19T00:10:05.053Z,24.54
2023-01-19T00:10:15.063Z,24.54
2023-01-19T00:10:25.087Z,24.54
2023-01-19T00:10:35.081Z,24.54
2023-01-19T00:10:45.087Z,24.54
2023-01-19T00:10:55.094Z,24.54
2023-01-19T00:11:05.121Z,24.54
2023-01-19T00:11:15.119Z,24.53
2023-01-19T00:11:25.132Z,24.54
2023-01-19T00:11:35.137Z,24.54
2023-01-19T00:11:45.151Z,24.54
2023-01-19T00:11:55.197Z,24.54
2023-01-19T00:12:05.318Z,24.54
2023-01-19T00:12:15.325Z,24.54
2023-01-19T00:12:25.596Z,24.54
2023-01-19T00:12:35.601Z,24.54
2023-01-19T00:12:45.613Z,24.54
2023-01-19T00:12:55.616Z,24.54
2023-01-19T00:13:05.636Z,24.55
2023-01-19T00:13:15.656Z,24.54
2023-01-19T00:13:25.710Z,24.55
2023-01-19T00:13:35.719Z,24.54
2023-01-19T00:13:45.847Z,24.54
2023-01-19T00:13:55.847Z,24.54
2023-01-19T00:14:06.101Z,24.55
2023-01-19T00:14:16.103Z,24.54
2023-01-19T00:14:26.112Z,24.55
2023-01-19T00:14:36.118Z,24.54
2023-01-19T00:14:46.135Z,24.55
2023-01-19T00:14:56.135Z,24.55
2023-01-19T00:15:06.149Z,24.55
2023-01-19T00:15:16.170Z,24.55
2023-01-19T00:15:26.203Z,24.55
2023-01-19T00:15:36.189Z,24.55
2023-01-19T00:15:46.571Z,24.55
2023-01-19T00:15:56.639Z,24.55
2023-01-19T00:16:06.723Z,24.55
2023-01-19T00:16:16.796Z,24.55
2023-01-19T00:16:26.869Z,24.56
2023-01-19T00:16:36.876Z,24.56
2023-01-19T00:16:46.869Z,24.55
2023-01-19T00:16:56.895Z,24.55
2023-01-19T00:17:06.882Z,24.56
2023-01-19T00:17:16.893Z,24.55
2023-01-19T00:17:27.263Z,24.56
2023-01-19T00:17:37.269Z,24.55
2023-01-19T00:17:47.386Z,24.55
2023-01-19T00:17:57.671Z,24.55
2023-01-19T00:18:09.812Z,24.55
2023-01-19T00:18:17.787Z,24.53
2023-01-19T00:18:27.903Z,24.53
2023-01-19T00:18:37.900Z,24.54
2023-01-19T00:18:48.047Z,24.55
2023-01-19T00:18:58.039Z,24.55
2023-01-19T00:19:08.054Z,24.55
2023-01-19T00:19:18.181Z,24.55
2023-01-19T00:19:28.299Z,24.56
2023-01-19T00:19:38.328Z,24.56
2023-01-19T00:19:48.583Z,24.56
2023-01-19T00:19:58.588Z,24.57
2023-01-19T00:20:08.705Z,24.56
2023-01-19T00:20:18.971Z,24.57
2023-01-19T00:20:29.104Z,24.57
2023-01-19T00:20:39.137Z,24.56
2023-01-19T00:20:49.398Z,24.56
2023-01-19T00:20:59.405Z,24.57
2023-01-19T00:21:09.400Z,24.57
2023-01-19T00:21:19.420Z,24.57
2023-01-19T00:21:29.433Z,24.56
2023-01-19T00:21:39.450Z,24.57
2023-01-19T00:21:49.440Z,24.56
2023-01-19T00:21:59.465Z,24.57
2023-01-19T00:22:09.602Z,24.57
2023-01-19T00:22:19.613Z,24.57
2023-01-19T00:22:29.865Z,24.57
2023-01-19T00:22:39.870Z,24.57
2023-01-19T00:22:49.988Z,24.57
2023-01-19T00:23:00.763Z,24.57
2023-01-19T00:23:10.362Z,24.57
2023-01-19T00:23:20.386Z,24.57
2023-01-19T00:23:30.654Z,24.56
2023-01-19T00:23:40.652Z,24.56
2023-01-19T00:23:50.666Z,24.56
2023-01-19T00:24:00.673Z,24.56
2023-01-19T00:24:10.797Z,24.56
2023-01-19T00:24:20.794Z,24.56
2023-01-19T00:24:30.806Z,24.56
2023-01-19T00:24:40.873Z,24.57
2023-01-19T00:24:50.888Z,24.56
2023-01-19T00:25:00.880Z,24.56
2023-01-19T00:25:11.138Z,24.55
2023-01-19T00:25:21.131Z,24.56
2023-01-19T00:25:31.262Z,24.56
2023-01-19T00:25:41.527Z,24.56
2023-01-19T00:25:51.669Z,24.57
2023-01-19T00:26:01.688Z,24.57
2023-01-19T00:26:11.941Z,24.56
2023-01-19T00:26:22.011Z,24.56
2023-01-19T00:26:31.972Z,24.56
2023-01-19T00:26:42.010Z,24.56
2023-01-19T00:26:52.008Z,24.56
2023-01-19T00:27:02.019Z,24.56
2023-01-19T00:27:12.134Z,24.55
2023-01-19T00:27:22.140Z,24.56
2023-01-19T00:27:32.261Z,24.57
2023-01-19T00:27:42.264Z,24.56
2023-01-19T00:27:52.394Z,24.56
2023-01-19T00:28:02.405Z,24.56
2023-01-19T00:28:12.406Z,24.56
2023-01-19T00:28:22.396Z,24.56
2023-01-19T00:28:32.404Z,24.56
2023-01-19T00:28:42.405Z,24.57
2023-01-19T00:28:52.527Z,24.56
2023-01-19T00:29:02.540Z,24.57
2023-01-19T00:29:12.660Z,24.57
2023-01-19T00:29:22.662Z,24.57
2023-01-19T00:29:32.785Z,24.57
2023-01-19T00:29:42.795Z,24.57
2023-01-19T00:29:52.788Z,24.56
2023-01-19T00:30:02.793Z,24.56
2023-01-19T00:30:12.949Z,24.56
2023-01-19T00:30:22.926Z,24.56
2023-01-19T00:30:32.949Z,24.56
2023-01-19T00:30:42.957Z,24.56
2023-01-19T00:30:53.081Z,24.56
2023-01-19T00:31:03.084Z,24.57
2023-01-19T00:31:13.241Z,24.56
2023-01-19T00:31:23.285Z,24.56
2023-01-19T00:31:33.458Z,24.56
2023-01-19T00:31:43.413Z,24.56
2023-01-19T00:31:53.440Z,24.55
2023-01-19T00:32:03.448Z,24.56
2023-01-19T00:32:13.460Z,24.56
2023-01-19T00:32:23.467Z,24.55
2023-01-19T00:32:33.585Z,24.56
2023-01-19T00:32:43.583Z,24.56
2023-01-19T00:32:53.835Z,24.57
2023-01-19T00:33:04.194Z,24.56
2023-01-19T00:33:13.936Z,24.56
2023-01-19T00:33:23.919Z,24.56
2023-01-19T00:33:33.936Z,24.55
2023-01-19T00:33:43.927Z,24.56
2023-01-19T00:33:53.924Z,24.56
2023-01-19T00:34:03.929Z,24.56
2023-01-19T00:34:14.082Z,24.57
2023-01-19T00:34:24.073Z,24.56
2023-01-19T00:34:34.338Z,24.56
2023-01-19T00:34:44.344Z,24.56
2023-01-19T00:34:54.463Z,24.55
2023-01-19T00:35:04.727Z,24.56
2023-01-19T00:35:14.736Z,24.57
2023-01-19T00:35:24.764Z,24.56
2023-01-19T00:35:34.772Z,24.57
2023-01-19T00:35:44.769Z,24.57
2023-01-19T00:35:54.785Z,24.57
2023-01-19T00:36:04.792Z,24.57
2023-01-19T00:36:14.796Z,24.56
2023-01-19T00:36:24.810Z,24.56
2023-01-19T00:36:34.813Z,24.56
2023-01-19T00:36:44.841Z,24.56
2023-01-19T00:36:54.820Z,24.56
2023-01-19T00:37:04.916Z,24.58
2023-01-19T00:37:14.918Z,24.57
2023-01-19T00:37:24.933Z,24.57
2023-01-19T00:37:34.949Z,24.57
2023-01-19T00:37:45.045Z,24.57
2023-01-19T00:37:55.308Z,24.57
2023-01-19T00:38:05.316Z,24.57
2023-01-19T00:38:15.372Z,24.57
2023-01-19T00:38:25.391Z,24.57
2023-01-19T00:38:35.414Z,24.57
2023-01-19T00:38:45.442Z,24.57
2023-01-19T00:38:55.439Z,24.57
2023-01-19T00:39:05.589Z,24.58
2023-01-19T00:39:15.581Z,24.58
2023-01-19T00:39:25.586Z,24.58
2023-01-19T00:39:35.846Z,24.57
2023-01-19T00:39:45.968Z,24.57
2023-01-19T00:39:55.981Z,24.58
2023-01-19T00:40:06.235Z,24.57
2023-01-19T00:40:16.244Z,24.58
2023-01-19T00:40:26.244Z,24.58
2023-01-19T00:40:36.254Z,24.57
2023-01-19T00:40:46.272Z,24.58
2023-01-19T00:40:56.280Z,24.58
2023-01-19T00:41:06.286Z,24.58
2023-01-19T00:41:16.332Z,24.58
2023-01-19T00:41:26.452Z,24.58
2023-01-19T00:41:36.450Z,24.58
2023-01-19T00:41:46.710Z,24.58
2023-01-19T00:41:56.715Z,24.59
2023-01-19T00:42:06.833Z,24.59
2023-01-19T00:42:17.104Z,24.59
2023-01-19T00:42:27.104Z,24.59
2023-01-19T00:42:37.110Z,24.59
2023-01-19T00:42:47.488Z,24.58
2023-01-19T00:42:57.771Z,24.58
2023-01-19T00:43:07.624Z,24.58
2023-01-19T00:43:17.890Z,24.58
2023-01-19T00:43:27.886Z,24.58
2023-01-19T00:43:37.883Z,24.58
2023-01-19T00:43:47.918Z,24.58
2023-01-19T00:43:57.918Z,24.58
2023-01-19T00:44:08.046Z,24.58
2023-01-19T00:44:18.066Z,24.58
2023-01-19T00:44:28.070Z,24.59
2023-01-19T00:44:38.068Z,24.58
2023-01-19T00:44:48.202Z,24.58
2023-01-19T00:44:58.391Z,24.58
2023-01-19T00:45:08.376Z,24.58
2023-01-19T00:45:18.377Z,24.58
2023-01-19T00:45:28.415Z,24.57
2023-01-19T00:45:38.496Z,24.59
2023-01-19T00:45:48.529Z,24.58
2023-01-19T00:45:58.688Z,24.59
2023-01-19T00:46:08.727Z,24.58
2023-01-19T00:46:18.630Z,24.58
2023-01-19T00:46:28.753Z,24.58
2023-01-19T00:46:39.013Z,24.58
2023-01-19T00:46:49.027Z,24.57
2023-01-19T00:46:59.035Z,24.58
2023-01-19T00:47:09.047Z,24.58
2023-01-19T00:47:19.054Z,24.58
2023-01-19T00:47:29.066Z,24.59
2023-01-19T00:47:39.070Z,24.58
2023-01-19T00:47:49.095Z,24.58
2023-01-19T00:47:59.099Z,24.58
2023-01-19T00:48:09.103Z,24.58
2023-01-19T00:48:19.107Z,24.58
2023-01-19T00:48:29.107Z,24.58
2023-01-19T00:48:39.119Z,24.58
2023-01-19T00:48:49.115Z,24.58
2023-01-19T00:48:59.134Z,24.58
2023-01-19T00:49:09.122Z,24.58
2023-01-19T00:49:19.119Z,24.58
2023-01-19T00:49:29.127Z,24.58
2023-01-19T00:49:39.134Z,24.58
2023-01-19T00:49:49.147Z,24.58
2023-01-19T00:49:59.178Z,24.58
2023-01-19T00:50:09.196Z,24.58
2023-01-19T00:50:19.202Z,24.58
2023-01-19T00:50:29.203Z,24.58
2023-01-19T00:50:39.201Z,24.58
2023-01-19T00:50:49.331Z,24.57
2023-01-19T00:50:59.335Z,24.58
2023-01-19T00:51:09.340Z,24.58
2023-01-19T00:51:19.342Z,24.58
2023-01-19T00:51:29.466Z,24.58
2023-01-19T00:51:39.470Z,24.58
2023-01-19T00:51:49.646Z,24.58
2023-01-19T00:51:59.631Z,24.58
2023-01-19T00:52:09.641Z,24.58
2023-01-19T00:52:19.644Z,24.58
2023-01-19T00:52:29.653Z,24.58
2023-01-19T00:52:39.652Z,24.58
2023-01-19T00:52:49.657Z,24.58
2023-01-19T00:53:00.079Z,24.59
2023-01-19T00:53:09.782Z,24.59
2023-01-19T00:53:19.777Z,24.59
2023-01-19T00:53:30.059Z,24.59
2023-01-19T00:53:40.050Z,24.58
2023-01-19T00:53:50.174Z,24.59
2023-01-19T00:54:00.435Z,24.58
2023-01-19T00:54:10.529Z,24.59
2023-01-19T00:54:20.527Z,24.59
2023-01-19T00:54:30.924Z,24.59
2023-01-19T00:54:40.929Z,24.58
2023-01-19T00:54:50.944Z,24.59
2023-01-19T00:55:00.949Z,24.59
2023-01-19T00:55:10.974Z,24.58
2023-01-19T00:55:20.964Z,24.59
2023-01-19T00:55:31.088Z,24.59
2023-01-19T00:55:41.093Z,24.59
2023-01-19T00:55:51.093Z,24.59
2023-01-19T00:56:01.112Z,24.59
2023-01-19T00:56:11.365Z,24.59
2023-01-19T00:56:21.370Z,24.59
2023-01-19T00:56:31.494Z,24.59
2023-01-19T00:56:41.752Z,24.59
2023-01-19T00:56:51.756Z,24.59
2023-01-19T00:57:01.763Z,24.60
2023-01-19T00:57:11.773Z,24.59
2023-01-19T00:57:21.792Z,24.59
2023-01-19T00:57:31.795Z,24.59
2023-01-19T00:57:41.802Z,24.59
2023-01-19T00:57:51.851Z,24.59
2023-01-19T00:58:01.863Z,24.59
2023-01-19T00:58:12.047Z,24.59
2023-01-19T00:58:21.944Z,24.59
2023-01-19T00:58:31.952Z,24.59
2023-01-19T00:58:41.978Z,24.59
2023-01-19T00:58:51.980Z,24.59
2023-01-19T00:59:01.982Z,24.59
2023-01-19T00:59:12.138Z,24.59
2023-01-19T00:59:22.133Z,24.60
2023-01-19T00:59:32.383Z,24.59
2023-01-19T00:59:42.397Z,24.59
2023-01-19T00:59:52.398Z,24.58
2023-01-19T01:00:02.398Z,24.58
2023-01-19T01:00:12.551Z,24.58
2023-01-19T01:00:22.537Z,24.59
2023-01-19T01:00:32.551Z,24.59
2023-01-19T01:00:42.610Z,24.59
2023-01-19T01:00:52.742Z,24.59
2023-01-19T01:01:02.753Z,24.59
2023-01-19T01:01:12.993Z,24.59
2023-01-19T01:01:23.123Z,24.59
2023-01-19T01:01:45.273Z,24.54
2023-01-19T01:01:45.446Z,24.50
2023-01-19T01:01:53.507Z,24.50
2023-01-19T01:02:03.586Z,24.52
2023-01-19T01:02:13.557Z,24.54
2023-01-19T01:02:23.612Z,24.53
2023-01-19T01:02:33.753Z,24.54
2023-01-19T01:02:43.690Z,24.54
2023-01-19T01:02:53.879Z,24.54
2023-01-19T01:03:04.437Z,24.55
2023-01-19T01:03:14.102Z,24.54
2023-01-19T01:03:23.934Z,24.55
2023-01-19T01:03:33.957Z,24.55
2023-01-19T01:03:43.965Z,24.55
2023-01-19T01:03:53.972Z,24.56
2023-01-19T01:04:03.987Z,24.56
2023-01-19T01:04:13.994Z,24.56
2023-01-19T01:04:24.002Z,24.57
2023-01-19T01:04:34.012Z,24.57
2023-01-19T01:04:44.023Z,24.57
2023-01-19T01:04:54.033Z,24.57
2023-01-19T01:05:04.040Z,24.57
2023-01-19T01:05:14.054Z,24.58
2023-01-19T01:05:24.084Z,24.57
2023-01-19T01:05:34.084Z,24.58
2023-01-19T01:05:44.104Z,24.57
2023-01-19T01:05:54.110Z,24.57
2023-01-19T01:06:04.101Z,24.58
2023-01-19T01:06:14.111Z,24.58
2023-01-19T01:06:24.130Z,24.58
2023-01-19T01:06:34.244Z,24.58
2023-01-19T01:06:44.242Z,24.59
2023-01-19T01:06:54.526Z,24.58
2023-01-19T01:07:04.511Z,24.59
2023-01-19T01:07:15.401Z,24.59
2023-01-19T01:07:24.653Z,24.58
2023-01-19T01:07:34.702Z,24.58
2023-01-19T01:07:44.741Z,24.57
2023-01-19T01:07:54.746Z,24.58
2023-01-19T01:08:04.743Z,24.58
2023-01-19T01:08:14.764Z,24.58
2023-01-19T01:08:24.772Z,24.58
2023-01-19T01:08:34.772Z,24.58
2023-01-19T01:08:44.777Z,24.58
2023-01-19T01:08:54.781Z,24.58
2023-01-19T01:09:04.778Z,24.58
2023-01-19T01:09:14.916Z,24.59
2023-01-19T01:09:24.926Z,24.59
2023-01-19T01:09:35.034Z,24.59
2023-01-19T01:09:45.188Z,24.60
2023-01-19T01:09:55.181Z,24.59
2023-01-19T01:10:05.200Z,24.59
2023-01-19T01:10:15.186Z,24.59
2023-01-19T01:10:25.200Z,24.58
2023-01-19T01:10:35.318Z,24.58
2023-01-19T01:10:45.319Z,24.59
2023-01-19T01:10:55.451Z,24.58
2023-01-19T01:11:05.458Z,24.59
2023-01-19T01:11:15.476Z,24.59
2023-01-19T01:11:25.615Z,24.58
2023-01-19T01:11:35.626Z,24.58
2023-01-19T01:11:45.647Z,24.58
2023-01-19T01:11:55.645Z,24.58
2023-01-19T01:12:06.078Z,24.58
2023-01-19T01:12:15.765Z,24.57
2023-01-19T01:12:25.919Z,24.57
2023-01-19T01:12:35.803Z,24.58
2023-01-19T01:12:57.493Z,24.58
2023-01-19T01:12:58.049Z,24.53
2023-01-19T01:13:20.700Z,24.49
2023-01-19T01:13:21.273Z,24.51
2023-01-19T01:13:27.611Z,24.45
2023-01-19T01:13:36.173Z,24.47
2023-01-19T01:13:46.173Z,24.49
2023-01-19T01:13:56.286Z,24.50
2023-01-19T01:14:06.317Z,24.51
2023-01-19T01:14:16.362Z,24.52
2023-01-19T01:14:26.496Z,24.52
2023-01-19T01:14:36.608Z,24.53
2023-01-19T01:14:46.632Z,24.54
2023-01-19T01:14:56.942Z,24.54
2023-01-19T01:15:06.939Z,24.54
2023-01-19T01:15:16.950Z,24.54
2023-01-19T01:15:26.964Z,24.55
2023-01-19T01:15:36.967Z,24.54
2023-01-19T01:15:46.981Z,24.55
2023-01-19T01:15:57.012Z,24.55
2023-01-19T01:16:07.103Z,24.55
2023-01-19T01:16:17.132Z,24.56
2023-01-19T01:16:27.150Z,24.55
2023-01-19T01:16:37.199Z,24.56
2023-01-19T01:16:47.284Z,24.55
2023-01-19T01:16:57.281Z,24.54
2023-01-19T01:17:07.301Z,24.55
2023-01-19T01:17:17.316Z,24.55
2023-01-19T01:17:27.313Z,24.55
2023-01-19T01:17:37.439Z,24.54
2023-01-19T01:17:47.706Z,24.55
2023-01-19T01:17:57.840Z,24.55
2023-01-19T01:18:07.829Z,24.56
2023-01-19T01:18:18.159Z,24.56
2023-01-19T01:18:28.234Z,24.56
2023-01-19T01:18:38.264Z,24.56
2023-01-19T01:18:48.295Z,24.55
2023-01-19T01:18:58.331Z,24.56
2023-01-19T01:19:08.392Z,24.55
2023-01-19T01:19:18.425Z,24.55
2023-01-19T01:19:28.577Z,24.56
2023-01-19T01:19:38.618Z,24.56
2023-01-19T01:19:48.653Z,24.55
2023-01-19T01:19:58.955Z,24.56
2023-01-19T01:20:08.960Z,24.56
2023-01-19T01:20:18.958Z,24.55
2023-01-19T01:20:28.962Z,24.55
2023-01-19T01:20:38.969Z,24.55
2023-01-19T01:20:49.096Z,24.55
2023-01-19T01:20:59.109Z,24.55
2023-01-19T01:21:09.237Z,24.55
2023-01-19T01:21:19.240Z,24.55
2023-01-19T01:21:29.380Z,24.54
2023-01-19T01:21:39.396Z,24.55
2023-01-19T01:21:49.401Z,24.55
2023-01-19T01:21:59.451Z,24.55
2023-01-19T01:22:09.606Z,24.55
2023-01-19T01:22:19.525Z,24.54
2023-01-19T01:22:29.505Z,24.55
2023-01-19T01:22:39.524Z,24.54
2023-01-19T01:22:49.665Z,24.54
2023-01-19T01:23:00.158Z,24.55
2023-01-19T01:23:09.761Z,24.55
2023-01-19T01:23:19.776Z,24.55
2023-01-19T01:23:29.781Z,24.56
2023-01-19T01:23:39.793Z,24.56
2023-01-19T01:23:49.819Z,24.57
2023-01-19T01:23:59.841Z,24.57
2023-01-19T01:24:09.853Z,24.56
2023-01-19T01:24:19.867Z,24.57
2023-01-19T01:24:29.868Z,24.56
2023-01-19T01:24:39.888Z,24.57
2023-01-19T01:24:49.889Z,24.57
2023-01-19T01:24:59.904Z,24.57
2023-01-19T01:25:09.921Z,24.57
2023-01-19T01:25:19.947Z,24.57
2023-01-19T01:25:29.958Z,24.57
2023-01-19T01:25:39.959Z,24.57
2023-01-19T01:25:49.970Z,24.56
2023-01-19T01:25:59.979Z,24.56
2023-01-19T01:26:09.976Z,24.56
2023-01-19T01:26:19.983Z,24.56
2023-01-19T01:26:29.995Z,24.56
2023-01-19T01:26:39.994Z,24.56
2023-01-19T01:26:50.004Z,24.57
2023-01-19T01:27:00.006Z,24.56
2023-01-19T01:27:10.011Z,24.57
2023-01-19T01:27:20.021Z,24.57
2023-01-19T01:27:30.042Z,24.57
2023-01-19T01:27:40.050Z,24.56
2023-01-19T01:27:50.066Z,24.57
2023-01-19T01:28:00.133Z,24.57
2023-01-19T01:28:10.262Z,24.56
2023-01-19T01:28:20.270Z,24.57
2023-01-19T01:28:30.271Z,24.58
2023-01-19T01:28:40.288Z,24.57
2023-01-19T01:28:50.396Z,24.57
2023-01-19T01:29:00.396Z,24.57
2023-01-19T01:29:10.535Z,24.57
2023-01-19T01:29:20.527Z,24.57
2023-01-19T01:29:30.535Z,24.57
2023-01-19T01:29:40.523Z,24.57
2023-01-19T01:29:50.652Z,24.57
2023-01-19T01:30:00.662Z,24.57
2023-01-19T01:30:10.778Z,24.57
2023-01-19T01:30:20.784Z,24.57
2023-01-19T01:30:30.780Z,24.57
2023-01-19T01:30:40.783Z,24.57
2023-01-19T01:30:50.922Z,24.57
2023-01-19T01:31:00.928Z,24.57
2023-01-19T01:31:10.937Z,24.56
2023-01-19T01:31:21.071Z,24.56
2023-01-19T01:31:30.983Z,24.56
2023-01-19T01:31:41.113Z,24.57
2023-01-19T01:31:51.108Z,24.57
2023-01-19T01:32:01.236Z,24.58
2023-01-19T01:32:11.363Z,24.58
2023-01-19T01:32:21.375Z,24.58
2023-01-19T01:32:31.633Z,24.58
2023-01-19T01:32:41.623Z,24.58
2023-01-19T01:32:51.744Z,24.58
2023-01-19T01:33:02.499Z,24.58
2023-01-19T01:33:12.062Z,24.58
2023-01-19T01:33:39.796Z,24.58
2023-01-19T01:33:40.042Z,24.53
2023-01-19T01:33:42.149Z,24.50
2023-01-19T01:33:52.128Z,24.53
2023-01-19T01:34:02.152Z,24.53
2023-01-19T01:34:12.229Z,24.54
2023-01-19T01:34:22.221Z,24.54
2023-01-19T01:34:32.344Z,24.55
2023-01-19T01:34:42.346Z,24.55
2023-01-19T01:34:52.348Z,24.55
2023-01-19T01:35:02.351Z,24.56
2023-01-19T01:35:12.467Z,24.56
2023-01-19T01:35:22.464Z,24.56
2023-01-19T01:35:32.587Z,24.57
2023-01-19T01:35:42.589Z,24.58
2023-01-19T01:35:52.707Z,24.58
2023-01-19T01:36:02.720Z,24.59
2023-01-19T01:36:12.745Z,24.59
2023-01-19T01:36:22.750Z,24.59
2023-01-19T01:36:32.881Z,24.59
2023-01-19T01:36:43.148Z,24.59
2023-01-19T01:36:53.275Z,24.59
2023-01-19T01:37:03.294Z,24.59
2023-01-19T01:37:13.525Z,24.58
2023-01-19T01:37:23.528Z,24.58
2023-01-19T01:37:33.529Z,24.59
2023-01-19T01:37:43.526Z,24.60
2023-01-19T01:37:53.651Z,24.60
2023-01-19T01:38:03.658Z,24.60
2023-01-19T01:38:13.661Z,24.61
2023-01-19T01:38:23.664Z,24.62
2023-01-19T01:38:33.659Z,24.62
2023-01-19T01:38:43.659Z,24.62
2023-01-19T01:38:53.913Z,24.63
2023-01-19T01:39:03.930Z,24.62
2023-01-19T01:39:13.934Z,24.61
2023-01-19T01:39:23.935Z,24.61
2023-01-19T01:39:33.944Z,24.61
2023-01-19T01:39:43.955Z,24.61
2023-01-19T01:39:53.971Z,24.60
2023-01-19T01:40:04.009Z,24.60
2023-01-19T01:40:13.999Z,24.60
2023-01-19T01:40:24.012Z,24.60
2023-01-19T01:40:34.000Z,24.60
2023-01-19T01:40:44.011Z,24.59
2023-01-19T01:40:54.008Z,24.58
2023-01-19T01:41:04.008Z,24.59
2023-01-19T01:41:14.134Z,24.60
2023-01-19T01:41:25.518Z,24.58
2023-01-19T01:41:34.220Z,24.57
2023-01-19T01:41:44.324Z,24.57
2023-01-19T01:41:54.665Z,24.57
2023-01-19T01:42:04.681Z,24.56
2023-01-19T01:42:14.804Z,24.55
2023-01-19T01:42:24.811Z,24.56
2023-01-19T01:42:34.809Z,24.56
2023-01-19T01:42:44.810Z,24.56
2023-01-19T01:42:54.941Z,24.55
2023-01-19T01:43:04.949Z,24.55
2023-01-19T01:43:14.948Z,24.55
2023-01-19T01:43:24.949Z,24.55
2023-01-19T01:43:35.352Z,24.55
2023-01-19T01:43:45.351Z,24.55
2023-01-19T01:43:55.467Z,24.55
2023-01-19T01:44:05.724Z,24.55
2023-01-19T01:44:15.727Z,24.56
2023-01-19T01:44:25.745Z,24.55
2023-01-19T01:44:35.744Z,24.56
2023-01-19T01:44:45.764Z,24.54
2023-01-19T01:44:55.774Z,24.55
2023-01-19T01:45:05.768Z,24.55
2023-01-19T01:45:15.895Z,24.55
2023-01-19T01:45:25.891Z,24.55
2023-01-19T01:45:36.054Z,24.55
2023-01-19T01:45:46.262Z,24.55
2023-01-19T01:45:56.372Z,24.54
2023-01-19T01:46:06.448Z,24.54
2023-01-19T01:46:16.736Z,24.54
2023-01-19T01:46:26.658Z,24.53
2023-01-19T01:46:36.663Z,24.53
2023-01-19T01:46:46.668Z,24.53
2023-01-19T01:46:56.684Z,24.53
2023-01-19T01:47:06.707Z,24.52
2023-01-19T01:47:16.720Z,24.53
2023-01-19T01:47:26.722Z,24.52
2023-01-19T01:47:36.783Z,24.53
2023-01-19T01:47:46.779Z,24.52
2023-01-19T01:47:56.788Z,24.53
2023-01-19T01:48:06.791Z,24.53
2023-01-19T01:48:16.912Z,24.54
2023-01-19T01:48:26.942Z,24.53
2023-01-19T01:48:36.975Z,24.53
2023-01-19T01:48:46.975Z,24.53
2023-01-19T01:48:56.976Z,24.53
2023-01-19T01:49:07.249Z,24.53
2023-01-19T01:49:17.244Z,24.53
2023-01-19T01:49:27.246Z,24.53
2023-01-19T01:49:37.249Z,24.53
2023-01-19T01:49:47.259Z,24.52
2023-01-19T01:49:57.267Z,24.53
2023-01-19T01:50:07.274Z,24.52
2023-01-19T01:50:17.292Z,24.52
2023-01-19T01:50:27.297Z,24.51
2023-01-19T01:50:37.305Z,24.52
2023-01-19T01:50:47.311Z,24.51
2023-01-19T01:50:57.446Z,24.51
2023-01-19T01:51:07.445Z,24.51
2023-01-19T01:51:17.587Z,24.50
2023-01-19T01:51:27.596Z,24.51
2023-01-19T01:51:37.602Z,24.51
2023-01-19T01:51:47.613Z,24.51
2023-01-19T01:51:57.740Z,24.51
2023-01-19T01:52:07.770Z,24.50
2023-01-19T01:52:17.760Z,24.50
2023-01-19T01:52:27.763Z,24.50
2023-01-19T01:52:37.777Z,24.49
2023-01-19T01:53:06.319Z,24.45
2023-01-19T01:53:06.846Z,24.50
2023-01-19T01:53:08.314Z,24.41
2023-01-19T01:53:18.020Z,24.43
2023-01-19T01:53:28.023Z,24.44
2023-01-19T01:53:38.025Z,24.45
2023-01-19T01:53:48.027Z,24.45
2023-01-19T01:53:58.157Z,24.46
2023-01-19T01:54:08.175Z,24.45
2023-01-19T01:54:18.283Z,24.46
2023-01-19T01:54:28.421Z,24.46
2023-01-19T01:54:38.414Z,24.46
2023-01-19T01:54:48.413Z,24.46
2023-01-19T01:54:58.418Z,24.46
2023-01-19T01:55:08.425Z,24.45
2023-01-19T01:55:18.557Z,24.46
2023-01-19T01:55:28.544Z,24.46
2023-01-19T01:55:38.672Z,24.45
2023-01-19T01:55:48.665Z,24.45
2023-01-19T01:55:58.795Z,24.45
2023-01-19T01:56:08.797Z,24.45
2023-01-19T01:56:18.932Z,24.44
2023-01-19T01:56:28.932Z,24.45
2023-01-19T01:56:39.182Z,24.44
2023-01-19T01:56:49.176Z,24.44
2023-01-19T01:56:59.323Z,24.44
2023-01-19T01:57:09.586Z,24.44
2023-01-19T01:57:19.636Z,24.43
2023-01-19T01:57:29.647Z,24.43
2023-01-19T01:57:39.658Z,24.42
2023-01-19T01:57:49.666Z,24.43
2023-01-19T01:57:59.675Z,24.42
2023-01-19T01:58:09.693Z,24.42
2023-01-19T01:58:19.702Z,24.42
2023-01-19T01:58:29.704Z,24.41
2023-01-19T01:58:39.697Z,24.41
2023-01-19T01:58:49.702Z,24.41
2023-01-19T01:58:59.707Z,24.41
2023-01-19T01:59:09.728Z,24.41
2023-01-19T01:59:19.721Z,24.40
2023-01-19T01:59:29.769Z,24.41
2023-01-19T01:59:39.796Z,24.41
2023-01-19T01:59:49.789Z,24.41
2023-01-19T01:59:59.793Z,24.40
2023-01-19T02:00:09.823Z,24.40
2023-01-19T02:00:19.828Z,24.40
2023-01-19T02:00:29.842Z,24.39
2023-01-19T02:00:39.849Z,24.40
2023-01-19T02:00:49.956Z,24.40
2023-01-19T02:00:59.996Z,24.40
2023-01-19T02:01:10.001Z,24.39
2023-01-19T02:01:20.009Z,24.39
2023-01-19T02:01:30.042Z,24.38
2023-01-19T02:01:40.113Z,24.39
2023-01-19T02:01:50.243Z,24.38
2023-01-19T02:02:00.430Z,24.38
2023-01-19T02:02:10.290Z,24.37
2023-01-19T02:02:20.435Z,24.37
2023-01-19T02:02:30.463Z,24.37
2023-01-19T02:02:40.458Z,24.36
2023-01-19T02:02:50.873Z,24.37
2023-01-19T02:03:01.241Z,24.36
2023-01-19T02:03:11.065Z,24.36
2023-01-19T02:03:21.350Z,24.36
2023-01-19T02:03:31.382Z,24.35
2023-01-19T02:03:41.440Z,24.35
2023-01-19T02:03:51.451Z,24.34
2023-01-19T02:04:01.454Z,24.35
2023-01-19T02:04:11.576Z,24.35
2023-01-19T02:04:21.576Z,24.35
2023-01-19T02:04:31.717Z,24.35
2023-01-19T02:04:41.699Z,24.34
2023-01-19T02:04:51.735Z,24.34
2023-01-19T02:05:01.850Z,24.34
2023-01-19T02:05:11.992Z,24.33
2023-01-19T02:05:21.975Z,24.34
2023-01-19T02:05:32.257Z,24.32
2023-01-19T02:05:42.258Z,24.32
2023-01-19T02:05:52.386Z,24.31
2023-01-19T02:06:02.652Z,24.31
2023-01-19T02:06:12.664Z,24.31
2023-01-19T02:06:22.684Z,24.30
2023-01-19T02:06:33.057Z,24.30
2023-01-19T02:06:43.056Z,24.31
2023-01-19T02:06:53.068Z,24.30
2023-01-19T02:07:03.086Z,24.29
2023-01-19T02:07:13.132Z,24.29
2023-01-19T02:07:23.108Z,24.29
2023-01-19T02:07:33.190Z,24.29
2023-01-19T02:07:43.185Z,24.29
2023-01-19T02:07:53.308Z,24.28
2023-01-19T02:08:03.310Z,24.29
2023-01-19T02:08:13.567Z,24.29
2023-01-19T02:08:23.566Z,24.28
2023-01-19T02:08:33.568Z,24.28
2023-01-19T02:08:43.576Z,24.28
2023-01-19T02:08:53.601Z,24.27
2023-01-19T02:09:03.605Z,24.28
2023-01-19T02:09:13.604Z,24.28
2023-01-19T02:09:23.618Z,24.27